WetterOnline ( https://www.wetteronline.de )

Wetter aktuell Eichstätt

Aktuelles Wetter: Gelbelsee (539m)

6-stündlich | Neueste Meldungen
Ortszeit Temperatur Wetter
Di, 17.09. 20:00 14.5° C wolkig
Di, 17.09. 14:00 14.4° C bedeckt
Di, 17.09. 8:00 13.8° C bedeckt
Di, 17.09. 2:00 16.5° C leichter Regen
Mo, 16.09. 20:00 19.8° C bedeckt
Mo, 16.09. 14:00 22.7° C wolkig
Mo, 16.09. 8:00 15.6° C leicht bewölkt
Mo, 16.09. 2:00 14.9° C wolkig
Ortszeit Temperatur Wetter
Mi, 18.09. 0:00 11.2° C wolkenlos
Di, 17.09. 23:40 11.4° C wolkenlos
Di, 17.09. 23:30 11.8° C wolkenlos
Di, 17.09. 23:20 11.8° C wolkenlos
Di, 17.09. 23:10 11.8° C fast wolkenlos
Di, 17.09. 23:00 12.1° C leicht bewölkt
Di, 17.09. 22:50 12.1° C leicht bewölkt
Di, 17.09. 22:30 12.3° C wolkenlos
Di, 17.09. 22:00 13.0° C wolkenlos
Di, 17.09. 21:30 13.2° C fast wolkenlos
Di, 17.09. 21:00 13.8° C leicht bewölkt
Ortszeit Relative Feuchte Sichtweite
Di, 17.09. 20:00 69% 40 km
Di, 17.09. 14:00 84% 65 km
Di, 17.09. 8:00 91% 21 km
Di, 17.09. 2:00 64% 60 km
Mo, 16.09. 20:00 49% 65 km
Mo, 16.09. 14:00 49% 65 km
Mo, 16.09. 8:00 79% 50 km
Mo, 16.09. 2:00 71% 65 km
Ortszeit Relative Feuchte Sichtweite
Mi, 18.09. 0:00 66% 55 km
Di, 17.09. 23:40 66% -
Di, 17.09. 23:30 64% 55 km
Di, 17.09. 23:20 64% -
Di, 17.09. 23:10 64% -
Di, 17.09. 23:00 63% 55 km
Di, 17.09. 22:50 63% -
Di, 17.09. 22:30 64% 45 km
Di, 17.09. 22:00 62% 50 km
Di, 17.09. 21:30 61% 50 km
Di, 17.09. 21:00 59% 50 km
Ortszeit Niederschlagsmenge Niederschlagsart
Di, 17.09. 20:00 0.1 l/m2 in 12 Std. -
Di, 17.09. 14:00 0.1 l/m2 in 6 Std. Sprühregen
Di, 17.09. 8:00 0.7 l/m2 in 12 Std. Regen
Di, 17.09. 2:00 0.1 l/m2 in 6 Std. Regen
Mo, 16.09. 20:00 0.0 l/m2 in 12 Std. -
Mo, 16.09. 14:00 0.0 l/m2 in 6 Std. -
Mo, 16.09. 8:00 0.0 l/m2 in 12 Std. -
Mo, 16.09. 2:00 0.0 l/m2 in 6 Std. -
Ortszeit Niederschlagsmenge Niederschlagsart
Mi, 18.09. 0:00 0.0 l/m2 in 1 Std. -
Di, 17.09. 23:40 keine Meldung -
Di, 17.09. 23:30 0.0 l/m2 in 1 Std. -
Di, 17.09. 23:20 keine Meldung -
Di, 17.09. 23:10 keine Meldung -
Di, 17.09. 23:00 0.0 l/m2 in 1 Std. -
Di, 17.09. 22:50 keine Meldung -
Di, 17.09. 22:30 0.0 l/m2 in 1 Std. -
Di, 17.09. 22:00 0.0 l/m2 in 1 Std. -
Di, 17.09. 21:30 0.0 l/m2 in 1 Std. -
Di, 17.09. 21:00 0.0 l/m2 in 1 Std. -
Ortszeit Stärke Spitze Richtung
km/h Bft. km/h Grad Sektor
Di, 17.09. 20:00 11 2 37 300° NW
Di, 17.09. 14:00 11 2 29 280° W
Di, 17.09. 8:00 11 2 22 330° NW
Di, 17.09. 2:00 11 2 22 310° NW
Mo, 16.09. 20:00 7 2 25 330° NW
Mo, 16.09. 14:00 9 2 17 270° W
Mo, 16.09. 8:00 4 1 18 230° SW
Mo, 16.09. 2:00 7 2 19 310° NW
Ortszeit Stärke Spitze Richtung
km/h Bft. km/h Grad Sektor
Mi, 18.09. 0:00 11 2 19 300° NW
Di, 17.09. 23:40 13 3 - 290° W
Di, 17.09. 23:30 11 2 18 310° NW
Di, 17.09. 23:20 11 2 - 310° NW
Di, 17.09. 23:10 11 2 - 310° NW
Di, 17.09. 23:00 11 2 22 310° NW
Di, 17.09. 22:50 11 2 - 310° NW
Di, 17.09. 22:30 13 3 22 310° NW
Di, 17.09. 22:00 13 3 20 300° NW
Di, 17.09. 21:30 11 2 19 300° NW
Di, 17.09. 21:00 13 3 22 310° NW
Ortszeit Untergrenze Bedeckung Gattung
total tief tief mittel hoch
Di, 17.09. 20:00 8100 m 8/8 0/8 - - -
Di, 17.09. 14:00 420 m 8/8 8/8 - - -
Di, 17.09. 8:00 420 m 8/8 8/8 - - -
Di, 17.09. 2:00 2400 m 8/8 8/8 - - -
Mo, 16.09. 20:00 3300 m 8/8 8/8 - - -
Mo, 16.09. 14:00 1080 m 7/8 1/8 - - -
Mo, 16.09. 8:00 8100 m 6/8 0/8 - - -
Mo, 16.09. 2:00 10500 m 8/8 0/8 - - -
Ortszeit Bedeckungsgrad in Achtel und Wolkenuntergrenze
Mi, 18.09. 0:00 keine Wolken
Di, 17.09. 23:40 keine Wolken
Di, 17.09. 23:30 keine Wolken
Di, 17.09. 23:20 keine Wolken
Di, 17.09. 23:10 1(8100m)
Di, 17.09. 23:00 3(8100m)
Di, 17.09. 22:50 3(8100m)
Di, 17.09. 22:30 2(8100m)
Di, 17.09. 22:00 keine Wolken
Di, 17.09. 21:30 1(8700m)
Di, 17.09. 21:00 3(7800m) 4(8700m)
Ortszeit Luftdruck NN (hPa) Tendenz (hPa in 3 Std.)
Di, 17.09. 20:00 1018 + 0,5
Di, 17.09. 14:00 1019 - 0,5
Di, 17.09. 8:00 1018 + 0,3
Di, 17.09. 2:00 1017 - 0,5
Mo, 16.09. 20:00 1017 + 0,1
Mo, 16.09. 14:00 1018 - 0,9
Mo, 16.09. 8:00 1020 - 0,6
Mo, 16.09. 2:00 1022 - 0,4
Ortszeit Luftdruck NN (hPa) Tendenz (hPa in 3 Std.)
Mi, 18.09. 0:00 1022 + 1,3
Di, 17.09. 23:40 1021 keine Meldung
Di, 17.09. 23:30 1021 + 1,6
Di, 17.09. 23:20 1021 keine Meldung
Di, 17.09. 23:10 1021 keine Meldung
Di, 17.09. 23:00 1021 + 1,9
Di, 17.09. 22:50 1021 keine Meldung
Di, 17.09. 22:30 1021 + 2,2
Di, 17.09. 22:00 1020 + 2,1
Di, 17.09. 21:30 1020 + 1,8
Di, 17.09. 21:00 1020 + 1,5
Ortszeit Schneehöhe (cm)
Di, 17.09. 20:00 -
Di, 17.09. 14:00 -
Di, 17.09. 8:00 -
Di, 17.09. 2:00 -
Mo, 16.09. 20:00 -
Mo, 16.09. 14:00 -
Mo, 16.09. 8:00 -
Mo, 16.09. 2:00 -
Ortszeit Schneehöhe (cm)
Mi, 18.09. 0:00 -
Di, 17.09. 23:40 -
Di, 17.09. 23:30 -
Di, 17.09. 23:20 -
Di, 17.09. 23:10 -
Di, 17.09. 23:00 -
Di, 17.09. 22:50 -
Di, 17.09. 22:30 -
Di, 17.09. 22:00 -
Di, 17.09. 21:30 -
Di, 17.09. 21:00 -
Link zu dieser Seite / Seite empfehlen

Das Wetter in ...